EGGP

Liverpool John Lennon Airport

Liverpool, United Kingdom
TAF EGGP 202253Z 2100/2124 29005KT 9999 SCT035 TEMPO 2100/2109 6000 -DZ BKN006 PROB30 TEMPO 2100/2106 BKN003
Issued Valid From Valid To
Aug-20 @ 22:53 UTC
(5 hours ago)
Aug-21 @ 00:00 UTC
(4 hours ago)
Aug-22 @ 00:00 UTC
(in 20 hours)
Aug-21 @ 00:00 to Aug-22 @ 00:00
TAF EGGP 202253Z 2100/2124 29005KT 9999 SCT035
Wind Visibility Clouds
290° at 5 knots 10,000+ meters
  • Scattered at 3,500' AGL
Temporary  (Probability 30%) Aug-21 @ 00:00 to Aug-21 @ 06:00
PROB30 TEMPO 2100/2106 BKN003
Clouds
  • Broken at 300' AGL
Temporary Aug-21 @ 00:00 to Aug-21 @ 09:00
TEMPO 2100/2109 6000 -DZ BKN006
Visibility Clouds Conditions
6,003 meters
  • Broken at 600' AGL
  • Light Drizzle
TAF EGGP 202253Z 2100/2124 29005KT 9999 SCT035 TEMPO 2100/2109 6000 -DZ BKN006 PROB30 TEMPO 2100/2106 BKN003
Issued Aug-20 @ 22:53 UTC
(5 hours ago)
Valid From Aug-21 @ 00:00 UTC
(4 hours ago)
Valid To Aug-22 @ 00:00 UTC
(in 20 hours)
Aug-21 @ 00:00 - Aug-22 @ 00:00
Wind Visibility
290° at 5 knots 10,000+ meters
Clouds
  • Scattered at 3,500' AGL
Probability 30% Temporary Aug-21 @ 00:00 - Aug-21 @ 06:00
Clouds
  • Broken at 300' AGL
Temporary Aug-21 @ 00:00 - Aug-21 @ 09:00
Clouds
  • Broken at 600' AGL
Conditions
  • Light Drizzle